Main page
Satellite images 10-day forecastsClimateMarine weather Cyclones Lightning AirportsFAQ Newsletter About
Weather : Europe Africa North America South America Asia Australia-Oceania Others
Languages Contact

Singapore, Singapore

Paya Lebar Air Base

latitude: 01-22N, longitude: 103-55E, elevation: 18 m


METAR: WSAP 292300Z 15003KT 9999 FEW016 BKN300 28/26 Q1012
TAF: WSAP 291700Z 2918/3024 18007KT 9999 FEW015CB SCT020 TEMPO 3006/3009 4000 SHRA FEW012CB BKN015

Time: 07:08 (23:08 UTC)

Current weather observation

The report was made 8 minutes ago, at 23:00 UTC
Wind 3 kt from the South/Southeast
Temperature 28°C
Humidity 89%
Pressure 1012 hPa
Visibility 10 km or more
Few clouds at a height of 1600 ft
Broken clouds at a height of 30000 ft

Change units

Forecast

The report was made 6 hours and 8 minutes ago, at 17:00 UTC
Forecast valid from 29 at 18 UTC to 30 at 24 UTC
Wind 7 kt from the South
Visibility 10 km or more
Few clouds at a height of 1500 ft, Cumulonimbus.
Scattered clouds at a height of 2000 ft
Temporary
from 30 at 06 UTC to 30 at 09 UTC
Visibility: 4000 m
Few clouds at a height of 1200 ft, Cumulonimbus.
Broken clouds at a height of 1500 ft
rain showers
The information on this site is subject to a disclaimer
Weather : Europe Africa North America South America Asia Australia-Oceania Others
Satellite images 10-day forecastsClimateMarine weather Cyclones Lightning AirportsFAQ Languages Contact Newsletter About